sensor_id;sensor_type;location;lat;lon;timestamp;P1;durP1;ratioP1;P2;durP2;ratioP2
15157;SDS011;7679;48.796;9.056;2022-07-29T00:00:13;3.15;;;3.05;;
15157;SDS011;7679;48.796;9.056;2022-07-29T00:10:37;3.45;;;3.25;;
15157;SDS011;7679;48.796;9.056;2022-07-29T00:21:04;3.10;;;3.00;;
15157;SDS011;7679;48.796;9.056;2022-07-29T00:31:28;2.78;;;2.67;;
15157;SDS011;7679;48.796;9.056;2022-07-29T00:41:55;2.88;;;2.78;;
15157;SDS011;7679;48.796;9.056;2022-07-29T00:52:19;2.83;;;2.72;;
15157;SDS011;7679;48.796;9.056;2022-07-29T01:02:48;3.00;;;2.90;;
15157;SDS011;7679;48.796;9.056;2022-07-29T01:13:12;2.85;;;2.75;;
15157;SDS011;7679;48.796;9.056;2022-07-29T01:23:51;3.00;;;2.90;;
15157;SDS011;7679;48.796;9.056;2022-07-29T01:34:27;3.20;;;3.10;;
15157;SDS011;7679;48.796;9.056;2022-07-29T01:44:55;2.90;;;2.80;;
15157;SDS011;7679;48.796;9.056;2022-07-29T01:55:25;3.25;;;3.15;;
15157;SDS011;7679;48.796;9.056;2022-07-29T02:05:52;3.00;;;2.90;;
15157;SDS011;7679;48.796;9.056;2022-07-29T02:16:22;2.80;;;2.70;;
15157;SDS011;7679;48.796;9.056;2022-07-29T02:26:50;2.90;;;2.80;;
15157;SDS011;7679;48.796;9.056;2022-07-29T02:37:19;2.90;;;2.80;;
15157;SDS011;7679;48.796;9.056;2022-07-29T02:47:47;2.80;;;2.70;;
15157;SDS011;7679;48.796;9.056;2022-07-29T02:58:18;2.72;;;2.63;;
15157;SDS011;7679;48.796;9.056;2022-07-29T03:08:49;2.58;;;2.47;;
15157;SDS011;7679;48.796;9.056;2022-07-29T03:19:17;2.80;;;2.70;;
15157;SDS011;7679;48.796;9.056;2022-07-29T03:29:45;2.33;;;2.33;;
15157;SDS011;7679;48.796;9.056;2022-07-29T03:40:13;2.50;;;2.40;;
15157;SDS011;7679;48.796;9.056;2022-07-29T03:50:45;2.60;;;2.50;;
15157;SDS011;7679;48.796;9.056;2022-07-29T04:01:14;2.38;;;2.30;;
15157;SDS011;7679;48.796;9.056;2022-07-29T04:11:42;2.67;;;2.58;;
15157;SDS011;7679;48.796;9.056;2022-07-29T04:22:09;2.75;;;2.65;;
15157;SDS011;7679;48.796;9.056;2022-07-29T04:32:33;2.42;;;2.42;;
15157;SDS011;7679;48.796;9.056;2022-07-29T04:43:00;2.70;;;2.60;;
15157;SDS011;7679;48.796;9.056;2022-07-29T04:53:25;2.38;;;2.38;;
15157;SDS011;7679;48.796;9.056;2022-07-29T05:03:51;2.78;;;2.60;;
15157;SDS011;7679;48.796;9.056;2022-07-29T05:14:15;2.70;;;2.60;;
15157;SDS011;7679;48.796;9.056;2022-07-29T05:24:42;2.97;;;2.80;;
15157;SDS011;7679;48.796;9.056;2022-07-29T05:35:07;3.00;;;2.70;;
15157;SDS011;7679;48.796;9.056;2022-07-29T05:45:34;2.50;;;2.40;;
15157;SDS011;7679;48.796;9.056;2022-07-29T05:55:58;2.50;;;2.40;;
15157;SDS011;7679;48.796;9.056;2022-07-29T06:06:31;2.63;;;2.42;;
15157;SDS011;7679;48.796;9.056;2022-07-29T06:16:56;2.40;;;2.30;;
15157;SDS011;7679;48.796;9.056;2022-07-29T06:27:23;2.20;;;2.20;;
15157;SDS011;7679;48.796;9.056;2022-07-29T06:37:47;2.17;;;2.08;;
15157;SDS011;7679;48.796;9.056;2022-07-29T06:48:13;2.60;;;2.40;;
15157;SDS011;7679;48.796;9.056;2022-07-29T06:58:37;2.08;;;2.08;;
15157;SDS011;7679;48.796;9.056;2022-07-29T07:09:04;2.30;;;2.20;;
15157;SDS011;7679;48.796;9.056;2022-07-29T07:19:28;1.98;;;1.98;;
15157;SDS011;7679;48.796;9.056;2022-07-29T07:29:55;2.10;;;2.10;;
15157;SDS011;7679;48.796;9.056;2022-07-29T07:40:19;2.30;;;2.20;;
15157;SDS011;7679;48.796;9.056;2022-07-29T07:50:46;2.60;;;2.50;;
15157;SDS011;7679;48.796;9.056;2022-07-29T08:01:10;2.70;;;2.60;;
15157;SDS011;7679;48.796;9.056;2022-07-29T08:11:39;3.10;;;3.00;;
15157;SDS011;7679;48.796;9.056;2022-07-29T08:22:03;3.00;;;2.90;;
15157;SDS011;7679;48.796;9.056;2022-07-29T08:32:30;3.58;;;3.40;;
15157;SDS011;7679;48.796;9.056;2022-07-29T08:42:54;3.45;;;3.25;;
15157;SDS011;7679;48.796;9.056;2022-07-29T08:53:23;3.38;;;3.28;;
15157;SDS011;7679;48.796;9.056;2022-07-29T09:03:49;3.78;;;3.58;;
15157;SDS011;7679;48.796;9.056;2022-07-29T09:14:20;3.95;;;3.75;;
15157;SDS011;7679;48.796;9.056;2022-07-29T09:24:44;4.30;;;4.10;;
15157;SDS011;7679;48.796;9.056;2022-07-29T09:35:17;3.97;;;3.70;;
15157;SDS011;7679;48.796;9.056;2022-07-29T09:45:41;4.10;;;3.90;;
15157;SDS011;7679;48.796;9.056;2022-07-29T09:56:10;4.18;;;3.97;;
15157;SDS011;7679;48.796;9.056;2022-07-29T10:06:34;3.83;;;3.63;;
15157;SDS011;7679;48.796;9.056;2022-07-29T10:17:01;4.10;;;3.80;;
15157;SDS011;7679;48.796;9.056;2022-07-29T10:27:26;4.45;;;4.15;;
15157;SDS011;7679;48.796;9.056;2022-07-29T11:10:22;3.97;;;3.78;;
15157;SDS011;7679;48.796;9.056;2022-07-29T11:20:49;4.05;;;3.85;;
15157;SDS011;7679;48.796;9.056;2022-07-29T11:31:15;4.57;;;4.28;;
15157;SDS011;7679;48.796;9.056;2022-07-29T11:41:42;4.18;;;3.97;;
15157;SDS011;7679;48.796;9.056;2022-07-29T11:52:10;4.22;;;4.03;;
15157;SDS011;7679;48.796;9.056;2022-07-29T12:02:52;4.07;;;3.88;;
15157;SDS011;7679;48.796;9.056;2022-07-29T12:13:17;4.10;;;3.90;;
15157;SDS011;7679;48.796;9.056;2022-07-29T12:23:54;4.20;;;4.00;;
15157;SDS011;7679;48.796;9.056;2022-07-29T12:34:18;4.20;;;3.90;;
15157;SDS011;7679;48.796;9.056;2022-07-29T13:14:36;3.95;;;3.75;;
15157;SDS011;7679;48.796;9.056;2022-07-29T13:25:02;4.05;;;3.85;;
15157;SDS011;7679;48.796;9.056;2022-07-29T13:35:29;4.95;;;4.60;;
15157;SDS011;7679;48.796;9.056;2022-07-29T13:45:53;3.90;;;3.75;;
15157;SDS011;7679;48.796;9.056;2022-07-29T13:56:20;4.10;;;3.80;;
15157;SDS011;7679;48.796;9.056;2022-07-29T14:06:44;4.10;;;3.90;;
15157;SDS011;7679;48.796;9.056;2022-07-29T14:17:12;3.97;;;3.80;;
15157;SDS011;7679;48.796;9.056;2022-07-29T14:27:36;3.50;;;3.30;;
15157;SDS011;7679;48.796;9.056;2022-07-29T14:38:02;4.00;;;3.72;;
15157;SDS011;7679;48.796;9.056;2022-07-29T14:48:26;3.53;;;3.33;;
15157;SDS011;7679;48.796;9.056;2022-07-29T14:58:53;3.80;;;3.60;;
15157;SDS011;7679;48.796;9.056;2022-07-29T15:09:17;3.70;;;3.50;;
15157;SDS011;7679;48.796;9.056;2022-07-29T15:19:44;3.75;;;3.53;;
15157;SDS011;7679;48.796;9.056;2022-07-29T15:30:09;3.80;;;3.60;;
15157;SDS011;7679;48.796;9.056;2022-07-29T15:40:40;3.85;;;3.65;;
15157;SDS011;7679;48.796;9.056;2022-07-29T15:51:06;3.72;;;3.45;;
15157;SDS011;7679;48.796;9.056;2022-07-29T16:01:33;3.63;;;3.42;;
15157;SDS011;7679;48.796;9.056;2022-07-29T16:11:57;3.80;;;3.60;;
15157;SDS011;7679;48.796;9.056;2022-07-29T16:22:24;3.65;;;3.45;;
15157;SDS011;7679;48.796;9.056;2022-07-29T16:32:48;3.60;;;3.40;;
15157;SDS011;7679;48.796;9.056;2022-07-29T16:43:14;3.58;;;3.47;;
15157;SDS011;7679;48.796;9.056;2022-07-29T16:53:38;3.67;;;3.50;;
15157;SDS011;7679;48.796;9.056;2022-07-29T17:04:06;3.47;;;3.35;;
15157;SDS011;7679;48.796;9.056;2022-07-29T17:14:33;3.33;;;3.22;;
15157;SDS011;7679;48.796;9.056;2022-07-29T17:25:00;3.28;;;3.17;;
15157;SDS011;7679;48.796;9.056;2022-07-29T17:35:24;3.78;;;3.58;;
15157;SDS011;7679;48.796;9.056;2022-07-29T17:46:03;3.38;;;3.28;;
15157;SDS011;7679;48.796;9.056;2022-07-29T17:56:28;3.20;;;3.10;;
15157;SDS011;7679;48.796;9.056;2022-07-29T18:06:54;3.30;;;3.20;;
15157;SDS011;7679;48.796;9.056;2022-07-29T18:17:18;3.45;;;3.35;;
15157;SDS011;7679;48.796;9.056;2022-07-29T18:27:44;3.35;;;3.15;;
15157;SDS011;7679;48.796;9.056;2022-07-29T18:38:08;3.80;;;3.60;;
15157;SDS011;7679;48.796;9.056;2022-07-29T18:48:35;3.75;;;3.40;;
15157;SDS011;7679;48.796;9.056;2022-07-29T18:58:59;3.38;;;3.28;;
15157;SDS011;7679;48.796;9.056;2022-07-29T19:09:26;3.22;;;3.13;;
15157;SDS011;7679;48.796;9.056;2022-07-29T19:19:50;3.10;;;3.00;;
15157;SDS011;7679;48.796;9.056;2022-07-29T19:30:17;3.42;;;3.33;;
15157;SDS011;7679;48.796;9.056;2022-07-29T19:40:41;3.38;;;3.17;;
15157;SDS011;7679;48.796;9.056;2022-07-29T19:51:07;3.72;;;3.53;;
15157;SDS011;7679;48.796;9.056;2022-07-29T20:01:31;3.85;;;3.65;;
15157;SDS011;7679;48.796;9.056;2022-07-29T20:11:59;3.70;;;3.50;;
15157;SDS011;7679;48.796;9.056;2022-07-29T20:22:23;3.40;;;3.30;;
15157;SDS011;7679;48.796;9.056;2022-07-29T20:32:51;3.13;;;3.03;;
15157;SDS011;7679;48.796;9.056;2022-07-29T20:43:15;3.15;;;3.05;;
15157;SDS011;7679;48.796;9.056;2022-07-29T20:53:41;3.38;;;3.28;;
15157;SDS011;7679;48.796;9.056;2022-07-29T21:04:07;3.40;;;3.30;;
15157;SDS011;7679;48.796;9.056;2022-07-29T21:14:33;3.90;;;3.70;;
15157;SDS011;7679;48.796;9.056;2022-07-29T21:25:18;3.25;;;3.15;;
15157;SDS011;7679;48.796;9.056;2022-07-29T21:35:46;3.60;;;3.50;;
15157;SDS011;7679;48.796;9.056;2022-07-29T21:46:10;3.38;;;3.28;;
15157;SDS011;7679;48.796;9.056;2022-07-29T21:56:38;3.40;;;3.30;;
15157;SDS011;7679;48.796;9.056;2022-07-29T22:07:02;3.50;;;3.40;;
15157;SDS011;7679;48.796;9.056;2022-07-29T22:17:29;3.83;;;3.72;;
15157;SDS011;7679;48.796;9.056;2022-07-29T22:27:54;3.45;;;3.35;;
15157;SDS011;7679;48.796;9.056;2022-07-29T22:38:23;3.72;;;3.63;;
15157;SDS011;7679;48.796;9.056;2022-07-29T22:48:46;3.67;;;3.58;;
15157;SDS011;7679;48.796;9.056;2022-07-29T22:59:13;3.63;;;3.53;;
15157;SDS011;7679;48.796;9.056;2022-07-29T23:09:37;3.65;;;3.55;;
15157;SDS011;7679;48.796;9.056;2022-07-29T23:20:07;3.70;;;3.60;;
15157;SDS011;7679;48.796;9.056;2022-07-29T23:30:34;3.50;;;3.40;;
15157;SDS011;7679;48.796;9.056;2022-07-29T23:41:00;3.90;;;3.80;;
15157;SDS011;7679;48.796;9.056;2022-07-29T23:51:28;4.20;;;4.00;;
